sensor_id;sensor_type;location;lat;lon;timestamp;P1;durP1;ratioP1;P2;durP2;ratioP2
70444;SDS011;57902;49.638;11.070;2023-07-20T00:01:44;5.18;;;2.45;;
70444;SDS011;57902;49.638;11.070;2023-07-20T00:04:12;8.27;;;2.90;;
70444;SDS011;57902;49.638;11.070;2023-07-20T00:06:40;5.28;;;2.53;;
70444;SDS011;57902;49.638;11.070;2023-07-20T00:09:07;7.20;;;2.55;;
70444;SDS011;57902;49.638;11.070;2023-07-20T00:11:35;5.95;;;2.75;;
70444;SDS011;57902;49.638;11.070;2023-07-20T00:14:04;5.10;;;2.40;;
70444;SDS011;57902;49.638;11.070;2023-07-20T00:16:31;7.03;;;2.53;;
70444;SDS011;57902;49.638;11.070;2023-07-20T00:18:58;6.85;;;2.63;;
70444;SDS011;57902;49.638;11.070;2023-07-20T00:21:25;6.60;;;2.88;;
70444;SDS011;57902;49.638;11.070;2023-07-20T00:23:51;5.72;;;2.63;;
70444;SDS011;57902;49.638;11.070;2023-07-20T00:26:18;5.80;;;2.70;;
70444;SDS011;57902;49.638;11.070;2023-07-20T00:28:45;6.18;;;2.63;;
70444;SDS011;57902;49.638;11.070;2023-07-20T00:31:11;7.35;;;2.47;;
70444;SDS011;57902;49.638;11.070;2023-07-20T00:33:38;4.55;;;2.28;;
70444;SDS011;57902;49.638;11.070;2023-07-20T00:36:05;5.85;;;2.40;;
70444;SDS011;57902;49.638;11.070;2023-07-20T00:38:31;4.93;;;2.33;;
70444;SDS011;57902;49.638;11.070;2023-07-20T00:40:58;5.72;;;2.42;;
70444;SDS011;57902;49.638;11.070;2023-07-20T00:43:24;5.10;;;2.03;;
70444;SDS011;57902;49.638;11.070;2023-07-20T00:45:51;4.72;;;2.10;;
70444;SDS011;57902;49.638;11.070;2023-07-20T00:48:18;5.45;;;2.40;;
70444;SDS011;57902;49.638;11.070;2023-07-20T00:50:45;5.13;;;2.10;;
70444;SDS011;57902;49.638;11.070;2023-07-20T00:53:13;5.13;;;2.33;;
70444;SDS011;57902;49.638;11.070;2023-07-20T00:55:40;6.38;;;2.50;;
70444;SDS011;57902;49.638;11.070;2023-07-20T00:58:07;5.05;;;2.40;;
70444;SDS011;57902;49.638;11.070;2023-07-20T01:00:34;5.30;;;2.45;;
70444;SDS011;57902;49.638;11.070;2023-07-20T01:03:01;6.13;;;2.67;;
70444;SDS011;57902;49.638;11.070;2023-07-20T01:05:32;5.18;;;2.38;;
70444;SDS011;57902;49.638;11.070;2023-07-20T01:08:15;7.47;;;2.72;;
70444;SDS011;57902;49.638;11.070;2023-07-20T01:10:51;7.93;;;2.45;;
70444;SDS011;57902;49.638;11.070;2023-07-20T01:13:23;6.20;;;2.65;;
70444;SDS011;57902;49.638;11.070;2023-07-20T01:16:02;7.15;;;2.80;;
70444;SDS011;57902;49.638;11.070;2023-07-20T01:18:29;6.82;;;2.90;;
70444;SDS011;57902;49.638;11.070;2023-07-20T01:20:58;5.75;;;2.65;;
70444;SDS011;57902;49.638;11.070;2023-07-20T01:26:35;5.05;;;2.40;;
70444;SDS011;57902;49.638;11.070;2023-07-20T01:29:17;6.75;;;2.70;;
70444;SDS011;57902;49.638;11.070;2023-07-20T01:31:54;5.93;;;2.35;;
70444;SDS011;57902;49.638;11.070;2023-07-20T01:36:49;7.07;;;2.60;;
70444;SDS011;57902;49.638;11.070;2023-07-20T01:39:19;9.43;;;2.80;;
70444;SDS011;57902;49.638;11.070;2023-07-20T01:41:46;6.88;;;2.70;;
70444;SDS011;57902;49.638;11.070;2023-07-20T01:44:13;8.80;;;2.72;;
70444;SDS011;57902;49.638;11.070;2023-07-20T01:46:40;5.57;;;2.45;;
70444;SDS011;57902;49.638;11.070;2023-07-20T01:49:07;7.70;;;2.80;;
70444;SDS011;57902;49.638;11.070;2023-07-20T01:51:33;7.32;;;2.70;;
70444;SDS011;57902;49.638;11.070;2023-07-20T01:54:00;8.07;;;2.90;;
70444;SDS011;57902;49.638;11.070;2023-07-20T01:56:26;11.82;;;2.53;;
70444;SDS011;57902;49.638;11.070;2023-07-20T01:58:53;7.63;;;2.85;;
70444;SDS011;57902;49.638;11.070;2023-07-20T02:01:20;8.40;;;2.70;;
70444;SDS011;57902;49.638;11.070;2023-07-20T02:03:46;7.45;;;2.67;;
70444;SDS011;57902;49.638;11.070;2023-07-20T02:06:13;9.23;;;2.90;;
70444;SDS011;57902;49.638;11.070;2023-07-20T02:08:42;7.80;;;2.70;;
70444;SDS011;57902;49.638;11.070;2023-07-20T02:11:09;7.32;;;2.83;;
70444;SDS011;57902;49.638;11.070;2023-07-20T02:13:36;8.27;;;2.70;;
70444;SDS011;57902;49.638;11.070;2023-07-20T02:16:02;7.03;;;2.80;;
70444;SDS011;57902;49.638;11.070;2023-07-20T02:18:29;6.93;;;2.80;;
70444;SDS011;57902;49.638;11.070;2023-07-20T02:21:00;7.18;;;2.90;;
70444;SDS011;57902;49.638;11.070;2023-07-20T02:23:26;6.10;;;2.92;;
70444;SDS011;57902;49.638;11.070;2023-07-20T02:25:53;7.05;;;3.10;;
70444;SDS011;57902;49.638;11.070;2023-07-20T02:28:19;8.02;;;2.92;;
70444;SDS011;57902;49.638;11.070;2023-07-20T02:30:46;7.20;;;3.08;;
70444;SDS011;57902;49.638;11.070;2023-07-20T02:33:13;6.35;;;2.85;;
70444;SDS011;57902;49.638;11.070;2023-07-20T02:35:40;6.55;;;2.95;;
70444;SDS011;57902;49.638;11.070;2023-07-20T02:38:06;6.97;;;3.20;;
70444;SDS011;57902;49.638;11.070;2023-07-20T02:40:33;6.43;;;2.60;;
70444;SDS011;57902;49.638;11.070;2023-07-20T02:42:59;6.78;;;3.10;;
70444;SDS011;57902;49.638;11.070;2023-07-20T02:45:26;8.48;;;3.20;;
70444;SDS011;57902;49.638;11.070;2023-07-20T02:47:53;7.65;;;3.13;;
70444;SDS011;57902;49.638;11.070;2023-07-20T02:50:19;10.77;;;3.47;;
70444;SDS011;57902;49.638;11.070;2023-07-20T02:52:46;10.00;;;3.47;;
70444;SDS011;57902;49.638;11.070;2023-07-20T02:55:12;7.90;;;3.00;;
70444;SDS011;57902;49.638;11.070;2023-07-20T02:57:39;5.93;;;2.88;;
70444;SDS011;57902;49.638;11.070;2023-07-20T03:00:07;6.35;;;2.95;;
70444;SDS011;57902;49.638;11.070;2023-07-20T03:02:34;8.45;;;3.00;;
70444;SDS011;57902;49.638;11.070;2023-07-20T03:05:02;6.55;;;3.15;;
70444;SDS011;57902;49.638;11.070;2023-07-20T03:07:32;7.93;;;3.13;;
70444;SDS011;57902;49.638;11.070;2023-07-20T03:09:58;9.15;;;3.05;;
70444;SDS011;57902;49.638;11.070;2023-07-20T03:12:25;6.28;;;2.97;;
70444;SDS011;57902;49.638;11.070;2023-07-20T03:14:51;7.28;;;2.92;;
70444;SDS011;57902;49.638;11.070;2023-07-20T03:17:18;6.38;;;2.67;;
70444;SDS011;57902;49.638;11.070;2023-07-20T03:22:13;5.80;;;2.70;;
70444;SDS011;57902;49.638;11.070;2023-07-20T03:24:40;5.47;;;2.55;;
70444;SDS011;57902;49.638;11.070;2023-07-20T03:27:06;6.30;;;2.75;;
70444;SDS011;57902;49.638;11.070;2023-07-20T03:29:33;7.00;;;3.17;;
70444;SDS011;57902;49.638;11.070;2023-07-20T03:31:59;7.25;;;2.88;;
70444;SDS011;57902;49.638;11.070;2023-07-20T03:34:26;7.70;;;2.88;;
70444;SDS011;57902;49.638;11.070;2023-07-20T03:36:53;5.80;;;2.80;;
70444;SDS011;57902;49.638;11.070;2023-07-20T03:39:19;6.00;;;2.90;;
70444;SDS011;57902;49.638;11.070;2023-07-20T03:41:46;8.30;;;2.83;;
70444;SDS011;57902;49.638;11.070;2023-07-20T03:44:12;7.95;;;2.80;;
70444;SDS011;57902;49.638;11.070;2023-07-20T03:46:39;6.20;;;2.80;;
70444;SDS011;57902;49.638;11.070;2023-07-20T03:49:06;7.22;;;3.03;;
70444;SDS011;57902;49.638;11.070;2023-07-20T03:51:32;7.82;;;2.78;;
70444;SDS011;57902;49.638;11.070;2023-07-20T03:53:59;7.03;;;2.90;;
70444;SDS011;57902;49.638;11.070;2023-07-20T03:56:25;6.45;;;3.28;;
70444;SDS011;57902;49.638;11.070;2023-07-20T03:58:52;7.22;;;2.88;;
70444;SDS011;57902;49.638;11.070;2023-07-20T04:01:19;5.82;;;2.70;;
70444;SDS011;57902;49.638;11.070;2023-07-20T04:03:45;7.18;;;2.60;;
70444;SDS011;57902;49.638;11.070;2023-07-20T04:06:15;9.02;;;2.90;;
70444;SDS011;57902;49.638;11.070;2023-07-20T04:08:44;9.77;;;2.95;;
70444;SDS011;57902;49.638;11.070;2023-07-20T04:11:11;8.30;;;3.15;;
70444;SDS011;57902;49.638;11.070;2023-07-20T04:13:37;7.50;;;3.50;;
70444;SDS011;57902;49.638;11.070;2023-07-20T04:16:04;7.20;;;3.05;;
70444;SDS011;57902;49.638;11.070;2023-07-20T04:18:30;7.43;;;2.90;;
70444;SDS011;57902;49.638;11.070;2023-07-20T04:20:57;7.25;;;3.67;;
70444;SDS011;57902;49.638;11.070;2023-07-20T04:23:23;8.00;;;3.85;;
70444;SDS011;57902;49.638;11.070;2023-07-20T04:25:50;8.30;;;3.53;;
70444;SDS011;57902;49.638;11.070;2023-07-20T04:28:18;7.72;;;3.20;;
70444;SDS011;57902;49.638;11.070;2023-07-20T04:30:44;7.93;;;3.17;;
70444;SDS011;57902;49.638;11.070;2023-07-20T04:33:11;7.38;;;2.88;;
70444;SDS011;57902;49.638;11.070;2023-07-20T04:35:45;9.35;;;3.20;;
70444;SDS011;57902;49.638;11.070;2023-07-20T04:38:15;7.75;;;2.72;;
70444;SDS011;57902;49.638;11.070;2023-07-20T04:40:44;9.82;;;3.13;;
70444;SDS011;57902;49.638;11.070;2023-07-20T04:43:12;12.27;;;3.88;;
70444;SDS011;57902;49.638;11.070;2023-07-20T04:45:39;7.38;;;3.28;;
70444;SDS011;57902;49.638;11.070;2023-07-20T04:48:08;7.40;;;2.88;;
70444;SDS011;57902;49.638;11.070;2023-07-20T04:50:43;8.55;;;3.10;;
70444;SDS011;57902;49.638;11.070;2023-07-20T04:53:12;7.50;;;2.97;;
70444;SDS011;57902;49.638;11.070;2023-07-20T04:55:39;7.43;;;3.20;;
70444;SDS011;57902;49.638;11.070;2023-07-20T04:58:06;9.07;;;3.38;;
70444;SDS011;57902;49.638;11.070;2023-07-20T05:00:33;8.73;;;3.38;;
70444;SDS011;57902;49.638;11.070;2023-07-20T05:03:00;7.97;;;3.45;;
70444;SDS011;57902;49.638;11.070;2023-07-20T05:05:27;8.23;;;3.45;;
70444;SDS011;57902;49.638;11.070;2023-07-20T05:07:54;8.77;;;3.35;;
70444;SDS011;57902;49.638;11.070;2023-07-20T05:10:21;11.63;;;3.28;;
70444;SDS011;57902;49.638;11.070;2023-07-20T05:12:47;7.90;;;2.92;;
70444;SDS011;57902;49.638;11.070;2023-07-20T05:15:14;8.35;;;3.38;;
70444;SDS011;57902;49.638;11.070;2023-07-20T05:17:40;10.25;;;3.30;;
70444;SDS011;57902;49.638;11.070;2023-07-20T05:20:07;13.52;;;3.25;;
70444;SDS011;57902;49.638;11.070;2023-07-20T05:22:36;7.07;;;3.20;;
70444;SDS011;57902;49.638;11.070;2023-07-20T05:25:07;12.63;;;3.63;;
70444;SDS011;57902;49.638;11.070;2023-07-20T05:27:38;34.45;;;5.13;;
70444;SDS011;57902;49.638;11.070;2023-07-20T05:30:06;28.42;;;5.53;;
70444;SDS011;57902;49.638;11.070;2023-07-20T05:32:36;10.93;;;4.03;;
70444;SDS011;57902;49.638;11.070;2023-07-20T05:35:02;10.10;;;3.42;;
70444;SDS011;57902;49.638;11.070;2023-07-20T05:37:29;9.20;;;3.75;;
70444;SDS011;57902;49.638;11.070;2023-07-20T05:39:56;9.57;;;3.85;;
70444;SDS011;57902;49.638;11.070;2023-07-20T05:42:23;8.20;;;3.50;;
70444;SDS011;57902;49.638;11.070;2023-07-20T05:44:50;10.43;;;3.60;;
70444;SDS011;57902;49.638;11.070;2023-07-20T05:47:19;10.30;;;3.33;;
70444;SDS011;57902;49.638;11.070;2023-07-20T05:49:45;11.07;;;3.35;;
70444;SDS011;57902;49.638;11.070;2023-07-20T05:52:12;11.05;;;3.40;;
70444;SDS011;57902;49.638;11.070;2023-07-20T05:54:39;9.40;;;3.38;;
70444;SDS011;57902;49.638;11.070;2023-07-20T05:57:06;9.98;;;3.13;;
70444;SDS011;57902;49.638;11.070;2023-07-20T05:59:34;8.02;;;3.05;;
70444;SDS011;57902;49.638;11.070;2023-07-20T06:02:03;7.85;;;2.92;;
70444;SDS011;57902;49.638;11.070;2023-07-20T06:04:31;8.88;;;2.90;;
70444;SDS011;57902;49.638;11.070;2023-07-20T06:06:58;11.65;;;3.03;;
70444;SDS011;57902;49.638;11.070;2023-07-20T06:09:29;10.23;;;2.88;;
70444;SDS011;57902;49.638;11.070;2023-07-20T06:11:58;11.18;;;3.05;;
70444;SDS011;57902;49.638;11.070;2023-07-20T06:14:26;8.15;;;2.90;;
70444;SDS011;57902;49.638;11.070;2023-07-20T06:16:55;7.43;;;2.70;;
70444;SDS011;57902;49.638;11.070;2023-07-20T06:19:44;9.38;;;2.67;;
70444;SDS011;57902;49.638;11.070;2023-07-20T06:22:23;7.68;;;2.50;;
70444;SDS011;57902;49.638;11.070;2023-07-20T06:24:51;6.93;;;2.53;;
70444;SDS011;57902;49.638;11.070;2023-07-20T06:27:31;8.15;;;2.65;;
70444;SDS011;57902;49.638;11.070;2023-07-20T06:29:58;7.18;;;2.55;;
70444;SDS011;57902;49.638;11.070;2023-07-20T06:32:33;7.13;;;2.60;;
70444;SDS011;57902;49.638;11.070;2023-07-20T06:35:01;7.05;;;2.17;;
70444;SDS011;57902;49.638;11.070;2023-07-20T06:37:55;9.60;;;3.90;;
70444;SDS011;57902;49.638;11.070;2023-07-20T06:40:32;6.43;;;2.45;;
70444;SDS011;57902;49.638;11.070;2023-07-20T06:43:02;8.45;;;2.40;;
70444;SDS011;57902;49.638;11.070;2023-07-20T06:45:35;6.95;;;2.30;;
70444;SDS011;57902;49.638;11.070;2023-07-20T06:48:14;8.52;;;2.20;;
70444;SDS011;57902;49.638;11.070;2023-07-20T06:50:44;13.50;;;3.03;;
70444;SDS011;57902;49.638;11.070;2023-07-20T06:53:12;8.27;;;2.10;;
70444;SDS011;57902;49.638;11.070;2023-07-20T06:55:47;5.68;;;2.05;;
70444;SDS011;57902;49.638;11.070;2023-07-20T06:58:14;7.57;;;2.33;;
70444;SDS011;57902;49.638;11.070;2023-07-20T07:00:40;6.50;;;2.10;;
70444;SDS011;57902;49.638;11.070;2023-07-20T07:03:07;7.18;;;2.03;;
70444;SDS011;57902;49.638;11.070;2023-07-20T07:05:37;9.48;;;2.20;;
70444;SDS011;57902;49.638;11.070;2023-07-20T07:08:07;5.90;;;2.05;;
70444;SDS011;57902;49.638;11.070;2023-07-20T07:10:34;5.28;;;1.80;;
70444;SDS011;57902;49.638;11.070;2023-07-20T07:13:02;6.57;;;2.20;;
70444;SDS011;57902;49.638;11.070;2023-07-20T07:15:31;5.70;;;2.45;;
70444;SDS011;57902;49.638;11.070;2023-07-20T07:20:26;6.85;;;2.05;;
70444;SDS011;57902;49.638;11.070;2023-07-20T07:25:22;8.25;;;2.53;;
70444;SDS011;57902;49.638;11.070;2023-07-20T07:27:49;5.78;;;1.90;;
70444;SDS011;57902;49.638;11.070;2023-07-20T07:30:16;5.10;;;1.73;;
70444;SDS011;57902;49.638;11.070;2023-07-20T07:32:43;5.50;;;1.70;;
70444;SDS011;57902;49.638;11.070;2023-07-20T07:35:09;4.57;;;1.60;;
70444;SDS011;57902;49.638;11.070;2023-07-20T07:37:36;6.40;;;1.83;;
70444;SDS011;57902;49.638;11.070;2023-07-20T07:40:22;6.32;;;1.67;;
70444;SDS011;57902;49.638;11.070;2023-07-20T07:42:49;5.80;;;1.75;;
70444;SDS011;57902;49.638;11.070;2023-07-20T07:45:16;5.07;;;1.63;;
70444;SDS011;57902;49.638;11.070;2023-07-20T07:47:43;10.95;;;2.00;;
70444;SDS011;57902;49.638;11.070;2023-07-20T07:50:09;5.32;;;1.80;;
70444;SDS011;57902;49.638;11.070;2023-07-20T07:52:36;4.50;;;1.70;;
70444;SDS011;57902;49.638;11.070;2023-07-20T07:55:03;6.78;;;1.80;;
70444;SDS011;57902;49.638;11.070;2023-07-20T07:57:30;2.67;;;1.33;;
70444;SDS011;57902;49.638;11.070;2023-07-20T07:59:57;7.57;;;1.52;;
70444;SDS011;57902;49.638;11.070;2023-07-20T08:02:23;6.65;;;1.67;;
70444;SDS011;57902;49.638;11.070;2023-07-20T08:04:50;5.95;;;1.70;;
70444;SDS011;57902;49.638;11.070;2023-07-20T08:07:18;6.00;;;1.70;;
70444;SDS011;57902;49.638;11.070;2023-07-20T08:09:45;5.55;;;1.60;;
70444;SDS011;57902;49.638;11.070;2023-07-20T08:12:12;7.38;;;1.73;;
70444;SDS011;57902;49.638;11.070;2023-07-20T08:14:39;4.05;;;1.70;;
70444;SDS011;57902;49.638;11.070;2023-07-20T08:17:06;6.72;;;1.65;;
70444;SDS011;57902;49.638;11.070;2023-07-20T08:19:33;7.20;;;1.50;;
70444;SDS011;57902;49.638;11.070;2023-07-20T08:22:00;3.97;;;1.35;;
70444;SDS011;57902;49.638;11.070;2023-07-20T08:24:26;5.85;;;1.60;;
70444;SDS011;57902;49.638;11.070;2023-07-20T08:26:53;5.43;;;1.58;;
70444;SDS011;57902;49.638;11.070;2023-07-20T08:29:20;6.68;;;1.60;;
70444;SDS011;57902;49.638;11.070;2023-07-20T08:31:47;8.75;;;1.60;;
70444;SDS011;57902;49.638;11.070;2023-07-20T08:34:13;6.30;;;1.77;;
70444;SDS011;57902;49.638;11.070;2023-07-20T08:36:56;8.00;;;1.60;;
70444;SDS011;57902;49.638;11.070;2023-07-20T08:39:23;6.07;;;1.65;;
70444;SDS011;57902;49.638;11.070;2023-07-20T08:41:50;3.30;;;1.33;;
70444;SDS011;57902;49.638;11.070;2023-07-20T08:44:20;6.25;;;1.80;;
70444;SDS011;57902;49.638;11.070;2023-07-20T08:46:48;5.85;;;1.60;;
70444;SDS011;57902;49.638;11.070;2023-07-20T08:49:16;6.63;;;1.30;;
70444;SDS011;57902;49.638;11.070;2023-07-20T08:51:45;4.80;;;1.60;;
70444;SDS011;57902;49.638;11.070;2023-07-20T08:54:13;7.00;;;1.60;;
70444;SDS011;57902;49.638;11.070;2023-07-20T08:56:40;3.97;;;1.30;;
70444;SDS011;57902;49.638;11.070;2023-07-20T08:59:08;3.58;;;1.10;;
70444;SDS011;57902;49.638;11.070;2023-07-20T09:01:35;6.03;;;1.33;;
70444;SDS011;57902;49.638;11.070;2023-07-20T09:04:05;6.28;;;1.30;;
70444;SDS011;57902;49.638;11.070;2023-07-20T09:06:32;3.70;;;1.45;;
70444;SDS011;57902;49.638;11.070;2023-07-20T09:09:01;5.32;;;1.33;;
70444;SDS011;57902;49.638;11.070;2023-07-20T09:11:28;4.15;;;1.45;;
70444;SDS011;57902;49.638;11.070;2023-07-20T09:14:05;3.92;;;1.20;;
70444;SDS011;57902;49.638;11.070;2023-07-20T09:16:32;5.30;;;1.40;;
70444;SDS011;57902;49.638;11.070;2023-07-20T09:19:14;4.55;;;1.20;;
70444;SDS011;57902;49.638;11.070;2023-07-20T09:21:43;6.07;;;1.92;;
70444;SDS011;57902;49.638;11.070;2023-07-20T09:24:14;5.30;;;1.30;;
70444;SDS011;57902;49.638;11.070;2023-07-20T09:26:44;4.25;;;1.38;;
70444;SDS011;57902;49.638;11.070;2023-07-20T09:29:14;4.25;;;1.45;;
70444;SDS011;57902;49.638;11.070;2023-07-20T09:31:44;4.63;;;1.45;;
70444;SDS011;57902;49.638;11.070;2023-07-20T09:34:28;6.90;;;1.77;;
70444;SDS011;57902;49.638;11.070;2023-07-20T09:36:59;11.73;;;1.40;;
70444;SDS011;57902;49.638;11.070;2023-07-20T09:39:27;5.55;;;1.30;;
70444;SDS011;57902;49.638;11.070;2023-07-20T09:41:58;5.78;;;1.35;;
70444;SDS011;57902;49.638;11.070;2023-07-20T09:44:30;4.50;;;1.40;;
70444;SDS011;57902;49.638;11.070;2023-07-20T09:47:02;3.38;;;1.38;;
70444;SDS011;57902;49.638;11.070;2023-07-20T09:49:31;5.65;;;1.63;;
70444;SDS011;57902;49.638;11.070;2023-07-20T09:55:05;8.65;;;1.45;;
70444;SDS011;57902;49.638;11.070;2023-07-20T09:57:35;5.63;;;1.23;;
70444;SDS011;57902;49.638;11.070;2023-07-20T10:00:06;3.13;;;1.00;;
70444;SDS011;57902;49.638;11.070;2023-07-20T10:02:44;4.65;;;1.20;;
70444;SDS011;57902;49.638;11.070;2023-07-20T10:05:12;3.45;;;1.27;;
70444;SDS011;57902;49.638;11.070;2023-07-20T10:07:44;4.30;;;1.45;;
70444;SDS011;57902;49.638;11.070;2023-07-20T10:10:14;3.30;;;1.08;;
70444;SDS011;57902;49.638;11.070;2023-07-20T10:12:46;5.72;;;1.35;;
70444;SDS011;57902;49.638;11.070;2023-07-20T10:15:18;4.25;;;1.40;;
70444;SDS011;57902;49.638;11.070;2023-07-20T10:20:31;3.42;;;1.23;;
70444;SDS011;57902;49.638;11.070;2023-07-20T10:23:01;5.68;;;1.20;;
70444;SDS011;57902;49.638;11.070;2023-07-20T10:25:28;2.85;;;1.10;;
70444;SDS011;57902;49.638;11.070;2023-07-20T10:27:55;4.00;;;1.30;;
70444;SDS011;57902;49.638;11.070;2023-07-20T10:32:53;3.58;;;1.30;;
70444;SDS011;57902;49.638;11.070;2023-07-20T10:35:20;3.63;;;1.00;;
70444;SDS011;57902;49.638;11.070;2023-07-20T10:37:47;2.20;;;1.10;;
70444;SDS011;57902;49.638;11.070;2023-07-20T10:40:32;3.85;;;1.20;;
70444;SDS011;57902;49.638;11.070;2023-07-20T10:43:03;2.63;;;1.08;;
70444;SDS011;57902;49.638;11.070;2023-07-20T10:48:05;2.47;;;1.00;;
70444;SDS011;57902;49.638;11.070;2023-07-20T10:50:33;2.13;;;1.00;;
70444;SDS011;57902;49.638;11.070;2023-07-20T10:55:32;2.53;;;1.10;;
70444;SDS011;57902;49.638;11.070;2023-07-20T10:58:09;5.50;;;1.25;;
70444;SDS011;57902;49.638;11.070;2023-07-20T11:00:36;4.22;;;1.20;;
70444;SDS011;57902;49.638;11.070;2023-07-20T11:03:03;2.70;;;0.98;;
70444;SDS011;57902;49.638;11.070;2023-07-20T11:05:34;4.38;;;1.10;;
70444;SDS011;57902;49.638;11.070;2023-07-20T11:08:06;2.67;;;0.90;;
70444;SDS011;57902;49.638;11.070;2023-07-20T11:10:36;2.97;;;1.10;;
70444;SDS011;57902;49.638;11.070;2023-07-20T11:13:22;4.47;;;1.20;;
70444;SDS011;57902;49.638;11.070;2023-07-20T11:18:22;3.22;;;1.17;;
70444;SDS011;57902;49.638;11.070;2023-07-20T11:20:52;4.50;;;1.10;;
70444;SDS011;57902;49.638;11.070;2023-07-20T11:23:20;3.03;;;1.23;;
70444;SDS011;57902;49.638;11.070;2023-07-20T11:25:47;3.78;;;1.20;;
70444;SDS011;57902;49.638;11.070;2023-07-20T11:28:14;2.10;;;0.95;;
70444;SDS011;57902;49.638;11.070;2023-07-20T11:30:40;3.97;;;0.98;;
70444;SDS011;57902;49.638;11.070;2023-07-20T11:33:10;4.10;;;1.38;;
70444;SDS011;57902;49.638;11.070;2023-07-20T11:35:48;3.58;;;1.10;;
70444;SDS011;57902;49.638;11.070;2023-07-20T11:38:17;4.65;;;1.10;;
70444;SDS011;57902;49.638;11.070;2023-07-20T11:40:45;3.03;;;1.20;;
70444;SDS011;57902;49.638;11.070;2023-07-20T11:43:12;4.93;;;1.13;;
70444;SDS011;57902;49.638;11.070;2023-07-20T11:45:42;3.65;;;1.13;;
70444;SDS011;57902;49.638;11.070;2023-07-20T11:48:17;2.67;;;1.20;;
70444;SDS011;57902;49.638;11.070;2023-07-20T11:50:44;2.97;;;1.10;;
70444;SDS011;57902;49.638;11.070;2023-07-20T11:53:11;3.35;;;1.23;;
70444;SDS011;57902;49.638;11.070;2023-07-20T11:55:39;3.25;;;1.17;;
70444;SDS011;57902;49.638;11.070;2023-07-20T11:58:08;3.38;;;1.20;;
70444;SDS011;57902;49.638;11.070;2023-07-20T12:00:37;2.70;;;0.90;;
70444;SDS011;57902;49.638;11.070;2023-07-20T12:03:06;4.35;;;1.20;;
70444;SDS011;57902;49.638;11.070;2023-07-20T12:05:34;3.17;;;1.20;;
70444;SDS011;57902;49.638;11.070;2023-07-20T12:08:21;2.38;;;1.20;;
70444;SDS011;57902;49.638;11.070;2023-07-20T12:10:48;5.45;;;1.30;;
70444;SDS011;57902;49.638;11.070;2023-07-20T12:13:17;4.85;;;1.52;;
70444;SDS011;57902;49.638;11.070;2023-07-20T12:15:44;3.08;;;1.30;;
70444;SDS011;57902;49.638;11.070;2023-07-20T12:18:11;3.47;;;1.10;;
70444;SDS011;57902;49.638;11.070;2023-07-20T12:20:40;2.42;;;1.10;;
70444;SDS011;57902;49.638;11.070;2023-07-20T12:23:10;3.67;;;1.15;;
70444;SDS011;57902;49.638;11.070;2023-07-20T12:25:39;4.28;;;1.20;;
70444;SDS011;57902;49.638;11.070;2023-07-20T12:28:19;4.32;;;1.23;;
70444;SDS011;57902;49.638;11.070;2023-07-20T12:30:46;3.80;;;1.10;;
70444;SDS011;57902;49.638;11.070;2023-07-20T12:33:14;2.15;;;1.00;;
70444;SDS011;57902;49.638;11.070;2023-07-20T12:35:42;2.67;;;1.00;;
70444;SDS011;57902;49.638;11.070;2023-07-20T12:38:10;5.60;;;1.13;;
70444;SDS011;57902;49.638;11.070;2023-07-20T12:40:37;5.35;;;1.25;;
70444;SDS011;57902;49.638;11.070;2023-07-20T12:43:03;4.97;;;1.20;;
70444;SDS011;57902;49.638;11.070;2023-07-20T12:45:32;2.03;;;1.00;;
70444;SDS011;57902;49.638;11.070;2023-07-20T12:47:59;4.70;;;1.10;;
70444;SDS011;57902;49.638;11.070;2023-07-20T12:50:26;5.63;;;1.25;;
70444;SDS011;57902;49.638;11.070;2023-07-20T12:52:53;2.70;;;1.10;;
70444;SDS011;57902;49.638;11.070;2023-07-20T12:55:23;4.40;;;1.17;;
70444;SDS011;57902;49.638;11.070;2023-07-20T12:57:49;2.47;;;0.90;;
70444;SDS011;57902;49.638;11.070;2023-07-20T13:00:16;4.97;;;1.20;;
70444;SDS011;57902;49.638;11.070;2023-07-20T13:02:43;3.13;;;1.02;;
70444;SDS011;57902;49.638;11.070;2023-07-20T13:05:10;4.10;;;1.20;;
70444;SDS011;57902;49.638;11.070;2023-07-20T13:07:37;3.72;;;1.10;;
70444;SDS011;57902;49.638;11.070;2023-07-20T13:10:09;6.10;;;1.50;;
70444;SDS011;57902;49.638;11.070;2023-07-20T13:12:37;8.60;;;1.50;;
70444;SDS011;57902;49.638;11.070;2023-07-20T13:15:08;2.70;;;1.10;;
70444;SDS011;57902;49.638;11.070;2023-07-20T13:17:41;5.72;;;1.40;;
70444;SDS011;57902;49.638;11.070;2023-07-20T13:20:09;4.43;;;1.13;;
70444;SDS011;57902;49.638;11.070;2023-07-20T13:22:40;4.95;;;1.20;;
70444;SDS011;57902;49.638;11.070;2023-07-20T13:25:07;4.53;;;1.10;;
70444;SDS011;57902;49.638;11.070;2023-07-20T13:27:35;3.13;;;1.30;;
70444;SDS011;57902;49.638;11.070;2023-07-20T13:30:04;3.30;;;1.05;;
70444;SDS011;57902;49.638;11.070;2023-07-20T13:32:36;1.75;;;1.00;;
70444;SDS011;57902;49.638;11.070;2023-07-20T13:35:03;3.00;;;0.95;;
70444;SDS011;57902;49.638;11.070;2023-07-20T13:37:30;4.97;;;1.30;;
70444;SDS011;57902;49.638;11.070;2023-07-20T13:39:57;1.90;;;0.90;;
70444;SDS011;57902;49.638;11.070;2023-07-20T13:42:23;3.17;;;1.10;;
70444;SDS011;57902;49.638;11.070;2023-07-20T13:44:50;3.20;;;1.30;;
70444;SDS011;57902;49.638;11.070;2023-07-20T13:47:16;4.05;;;1.30;;
70444;SDS011;57902;49.638;11.070;2023-07-20T13:49:46;5.50;;;1.10;;
70444;SDS011;57902;49.638;11.070;2023-07-20T13:52:13;3.95;;;1.08;;
70444;SDS011;57902;49.638;11.070;2023-07-20T13:54:43;5.20;;;1.20;;
70444;SDS011;57902;49.638;11.070;2023-07-20T13:57:13;5.18;;;1.05;;
70444;SDS011;57902;49.638;11.070;2023-07-20T13:59:41;5.38;;;1.23;;
70444;SDS011;57902;49.638;11.070;2023-07-20T14:02:10;3.90;;;1.17;;
70444;SDS011;57902;49.638;11.070;2023-07-20T14:04:40;2.10;;;1.00;;
70444;SDS011;57902;49.638;11.070;2023-07-20T14:07:08;3.15;;;1.10;;
70444;SDS011;57902;49.638;11.070;2023-07-20T14:12:02;2.90;;;1.20;;
70444;SDS011;57902;49.638;11.070;2023-07-20T14:14:31;4.47;;;1.30;;
70444;SDS011;57902;49.638;11.070;2023-07-20T14:16:58;1.80;;;0.80;;
70444;SDS011;57902;49.638;11.070;2023-07-20T14:19:25;3.80;;;1.10;;
70444;SDS011;57902;49.638;11.070;2023-07-20T14:21:51;4.53;;;1.20;;
70444;SDS011;57902;49.638;11.070;2023-07-20T14:24:18;3.08;;;1.33;;
70444;SDS011;57902;49.638;11.070;2023-07-20T14:26:45;3.97;;;1.20;;
70444;SDS011;57902;49.638;11.070;2023-07-20T14:29:17;5.07;;;1.20;;
70444;SDS011;57902;49.638;11.070;2023-07-20T14:31:45;4.22;;;1.30;;
70444;SDS011;57902;49.638;11.070;2023-07-20T14:34:19;3.38;;;1.30;;
70444;SDS011;57902;49.638;11.070;2023-07-20T14:36:45;3.15;;;1.30;;
70444;SDS011;57902;49.638;11.070;2023-07-20T14:39:12;3.70;;;1.30;;
70444;SDS011;57902;49.638;11.070;2023-07-20T14:41:39;2.83;;;1.05;;
70444;SDS011;57902;49.638;11.070;2023-07-20T14:44:05;4.00;;;1.27;;
70444;SDS011;57902;49.638;11.070;2023-07-20T14:46:32;4.70;;;1.15;;
70444;SDS011;57902;49.638;11.070;2023-07-20T14:48:58;2.70;;;1.20;;
70444;SDS011;57902;49.638;11.070;2023-07-20T14:51:25;2.25;;;1.00;;
70444;SDS011;57902;49.638;11.070;2023-07-20T14:54:03;4.32;;;1.08;;
70444;SDS011;57902;49.638;11.070;2023-07-20T14:56:29;3.67;;;1.10;;
70444;SDS011;57902;49.638;11.070;2023-07-20T14:58:56;8.35;;;1.33;;
70444;SDS011;57902;49.638;11.070;2023-07-20T15:01:24;4.28;;;1.10;;
70444;SDS011;57902;49.638;11.070;2023-07-20T15:03:52;4.00;;;1.05;;
70444;SDS011;57902;49.638;11.070;2023-07-20T15:06:24;2.70;;;1.10;;
70444;SDS011;57902;49.638;11.070;2023-07-20T15:08:51;4.50;;;1.30;;
70444;SDS011;57902;49.638;11.070;2023-07-20T15:11:18;3.00;;;1.20;;
70444;SDS011;57902;49.638;11.070;2023-07-20T15:13:44;6.05;;;1.20;;